Hlavní strana
METAR-TAF:

METAR-TAF

Letiště :

Letiště Sliač

Banská Bystrica, Slovensko

zeměpisná šířka: 48-38-17N, zeměpisná délka: 019-08-03E, výška: 318 m

METAR: chybějící

Čas: 18:48 (16:48 UTC)

Předpověď počasí

Zpráva byla vytvořena před 3 hodinami a 18 minutami, v 13:30 UTC
Předpověď platná od 27 v 15 UTC do 27 v 24 UTC
Jihovýchodní vítr 8 kt
Viditelnost 10 km a více
Polojasno ve výšce 4500 ft
Pravděpodobnost 30% :
Dočasný
od 27 v 16 UTC do 27 v 18 UTC
Skoro jasno ve výšce 3000 ft, Vertikální cumulus.
Oblačno až skoro zataženo ve výšce 4000 ft
slabé dešťové přeháňky
Změna
od 27 v 21 UTC do 27 v 23 UTC
vítr z různých směrů 3 kt

TAF: LZSL 271330Z 2715/2724 13008KT 9999 SCT045 PROB30 TEMPO 2716/2718 -SHRA FEW030TCU BKN040 BECMG 2721/2723 VRB03KT

Stav a předpovědi počasí z více než 4 000 letišť (zprávy METAR a TAF).

Červené a žluté tečky na mapě představují dostupné meteorologické stanice.

Když kurzor umístíte na tečku, zobrazí se název stanice.

Pak kliknutím zobrazíte stav a předpověď počasí.

Chcete-li změnit mapu, kliknutím na zelené tlačítko se znaménkem +mapu přiblížíte, kliknutím na zelené tlačítko se znaménkem – mapu oddálíte a kliknutím na zelené šipky přejdete na sousední mapy.


METAR-TAF: